Time;durP1;ratioP1;P1;durP2;ratioP2;P2;SDS_P1;SDS_P2;PMS_P1;PMS_P2;Temp;Humidity;BMP_temperature;BMP_pressure;BME280_temperature;BME280_humidity;BME280_pressure;Samples;Min_cycle;Max_cycle;Signal;HPM_P1;HPM_P2
2022/02/16 08:09:25;;;;;;;0.82;0.45;;;;;;;;;;12814636;23;20035;-83
2022/02/16 08:14:26;;;;;;;0.65;0.30;;;;;;;;;;12082742;23;15389687;-84
2022/02/16 08:19:27;;;;;;;2.03;1.00;;;;;;;;;;12738287;23;20005;-82
2022/02/16 08:24:28;;;;;;;;;;;;;;;;;;12739753;23;20005;-83
2022/02/16 08:29:29;;;;;;;1.60;0.90;;;;;;;;;;12761693;23;20310;-82
2022/02/16 08:34:30;;;;;;;1.52;0.50;;;;;;;;;;12732244;23;20037;-83
2022/02/16 08:39:31;;;;;;;1.55;0.80;;;;;;;;;;12745494;23;20009;-84
2022/02/16 08:44:32;;;;;;;1.20;0.80;;;;;;;;;;12756715;23;20002;-83
2022/02/16 08:49:33;;;;;;;0.95;0.60;;;;;;;;;;12739339;23;20006;-82
2022/02/16 08:54:34;;;;;;;;;;;;;;;;;;12742308;23;20075;-82
2022/02/16 08:59:35;;;;;;;1.05;0.60;;;;;;;;;;12740572;23;19901;-80
2022/02/16 09:04:36;;;;;;;;;;;;;;;;;;12768715;23;20001;-80
2022/02/16 09:09:38;;;;;;;1.67;0.40;;;;;;;;;;12742543;23;19948;-80
2022/02/16 09:14:39;;;;;;;0.95;0.60;;;;;;;;;;12740054;23;20064;-81
2022/02/16 09:19:40;;;;;;;2.53;1.02;;;;;;;;;;12768515;23;20319;-81
2022/02/16 09:24:42;;;;;;;0.60;0.40;;;;;;;;;;12765381;23;20001;-81
2022/02/16 09:29:43;;;;;;;2.08;1.38;;;;;;;;;;12729726;23;20037;-80
2022/02/16 09:34:45;;;;;;;1.35;0.77;;;;;;;;;;12720302;23;20008;-80
2022/02/16 09:39:46;;;;;;;1.08;0.60;;;;;;;;;;12722214;23;20071;-80
2022/02/16 09:44:47;;;;;;;4.00;2.28;;;;;;;;;;12752152;23;20032;-81
2022/02/16 09:49:48;;;;;;;2.83;1.80;;;;;;;;;;12726515;23;20013;-82
2022/02/16 09:54:49;;;;;;;2.00;1.20;;;;;;;;;;12727593;23;20005;-83
2022/02/16 09:59:50;;;;;;;1.92;1.27;;;;;;;;;;12753727;23;20001;-83
2022/02/16 10:04:56;;;;;;;4.35;2.63;;;;;;;;;;12734794;23;20005;-83
2022/02/16 10:10:12;;;;;;;1.77;1.20;;;;;;;;;;12741115;23;20064;-82
2022/02/16 10:15:14;;;;;;;2.42;1.30;;;;;;;;;;12768302;23;20426;-82
2022/02/16 10:20:19;;;;;;;3.42;2.22;;;;;;;;;;12762160;23;20001;-82
2022/02/16 10:25:21;;;;;;;3.63;2.38;;;;;;;;;;12737052;23;20016;-81
2022/02/16 10:30:21;;;;;;;2.60;2.03;;;;;;;;;;12737768;23;20452;-82
2022/02/16 10:35:33;;;;;;;3.20;2.50;;;;;;;;;;12728781;23;20006;-83
2022/02/16 10:40:34;;;;;;;3.10;2.70;;;;;;;;;;12729740;23;19998;-83
2022/02/16 10:45:45;;;;;;;3.70;2.17;;;;;;;;;;12729563;23;20001;-82
2022/02/16 10:50:47;;;;;;;3.00;2.70;;;;;;;;;;12685698;23;20029;-82
2022/02/16 10:55:50;;;;;;;3.15;1.50;;;;;;;;;;12673001;23;20041;-82
2022/02/16 11:00:53;;;;;;;2.75;1.70;;;;;;;;;;12672420;23;20006;-83
2022/02/16 11:05:55;;;;;;;4.93;3.72;;;;;;;;;;12672460;23;20006;-82
2022/02/16 11:10:56;;;;;;;2.22;2.03;;;;;;;;;;12671144;23;20091;-84
2022/02/16 11:15:59;;;;;;;3.13;2.65;;;;;;;;;;12694661;23;20010;-81
2022/02/16 11:21:06;;;;;;;3.45;3.03;;;;;;;;;;12669069;23;20320;-82
2022/02/16 11:26:45;;;;;;;4.00;3.60;;;;;;;;;;12667066;23;20014;-82
2022/02/16 11:31:47;;;;;;;4.47;2.97;;;;;;;;;;12539308;23;20014;-81
2022/02/16 11:37:02;;;;;;;3.60;2.70;;;;;;;;;;12716311;23;20010;-82
2022/02/16 11:42:03;;;;;;;4.70;2.47;;;;;;;;;;12722484;23;19998;-82
2022/02/16 11:47:04;;;;;;;;;;;;;;;;;;12708723;23;20061;-84
2022/02/16 11:52:25;;;;;;;3.92;1.50;;;;;;;;;;12688060;23;20259;-82
2022/02/16 11:57:42;;;;;;;3.43;1.30;;;;;;;;;;12682013;23;20010;-83
2022/02/16 12:02:56;;;;;;;2.85;1.90;;;;;;;;;;12678018;23;20010;-81
2022/02/16 12:08:11;;;;;;;3.05;1.83;;;;;;;;;;12670484;23;20069;-80
2022/02/16 12:13:12;;;;;;;3.22;2.00;;;;;;;;;;12690465;23;20004;-80
2022/02/16 12:18:13;;;;;;;;;;;;;;;;;;12669892;23;20060;-80
2022/02/16 12:23:14;;;;;;;2.17;1.95;;;;;;;;;;12673201;23;19956;-82
2022/02/16 12:28:16;;;;;;;4.13;2.00;;;;;;;;;;12671397;23;20457;-83
2022/02/16 12:33:21;;;;;;;3.08;2.17;;;;;;;;;;12683170;23;20010;-84
2022/02/16 12:38:26;;;;;;;2.95;2.35;;;;;;;;;;12704717;23;20058;-82
2022/02/16 12:43:28;;;;;;;4.20;3.22;;;;;;;;;;12675731;23;20435;-83
2022/02/16 12:48:29;;;;;;;8.43;6.45;;;;;;;;;;12676467;23;20056;-83
2022/02/16 12:53:37;;;;;;;2.28;1.80;;;;;;;;;;12673935;23;20013;-83
2022/02/16 12:58:40;;;;;;;4.15;3.47;;;;;;;;;;12667901;23;20057;-83
2022/02/16 13:04:14;;;;;;;3.53;2.05;;;;;;;;;;12693989;23;20002;-85
2022/02/16 13:09:17;;;;;;;3.45;2.28;;;;;;;;;;12665244;23;20089;-84
2022/02/16 13:14:27;;;;;;;2.17;1.60;;;;;;;;;;12674474;23;20064;-83
2022/02/16 13:19:45;;;;;;;3.80;1.67;;;;;;;;;;12671712;23;20013;-83
2022/02/16 13:25:06;;;;;;;3.63;2.10;;;;;;;;;;12666856;23;20307;-83
2022/02/16 13:30:08;;;;;;;2.47;1.48;;;;;;;;;;12666417;23;20025;-83
2022/02/16 13:35:32;;;;;;;2.05;1.70;;;;;;;;;;12665159;23;20018;-82
2022/02/16 13:40:58;;;;;;;1.77;1.25;;;;;;;;;;12669105;23;20006;-82
2022/02/16 13:46:00;;;;;;;1.98;1.38;;;;;;;;;;12671061;23;19997;-82
2022/02/16 13:51:09;;;;;;;1.90;1.20;;;;;;;;;;12667869;23;20037;-83
2022/02/16 13:56:13;;;;;;;1.70;1.30;;;;;;;;;;12661321;23;20199;-82
2022/02/16 14:01:21;;;;;;;3.85;1.30;;;;;;;;;;12661649;23;20002;-83
2022/02/16 14:06:25;;;;;;;3.53;1.20;;;;;;;;;;12664167;23;20069;-82
2022/02/16 14:11:26;;;;;;;1.98;1.17;;;;;;;;;;12661558;23;20002;-85
2022/02/16 14:16:27;;;;;;;;;;;;;;;;;;12689453;23;20006;-84
2022/02/16 14:21:28;;;;;;;2.58;1.80;;;;;;;;;;12664118;23;19907;-82
2022/02/16 14:26:29;;;;;;;;;;;;;;;;;;12677124;23;20050;-82
2022/02/16 14:31:30;;;;;;;4.88;2.13;;;;;;;;;;12692735;23;19900;-84
2022/02/16 14:36:39;;;;;;;7.90;4.68;;;;;;;;;;12688134;23;20010;-81
2022/02/16 14:41:40;;;;;;;2.20;1.20;;;;;;;;;;12673333;23;20005;-81
2022/02/16 14:46:46;;;;;;;3.90;1.38;;;;;;;;;;12666559;23;20009;-82
2022/02/16 14:51:50;;;;;;;3.58;1.50;;;;;;;;;;12666189;23;20038;-81
2022/02/16 14:56:52;;;;;;;7.03;1.88;;;;;;;;;;12664001;23;20006;-81
2022/02/16 15:02:01;;;;;;;4.80;1.63;;;;;;;;;;12667275;23;19998;-81
2022/02/16 15:07:03;;;;;;;6.68;2.00;;;;;;;;;;12695406;23;20036;-81
2022/02/16 15:12:04;;;;;;;7.85;2.67;;;;;;;;;;12671609;23;20013;-84
2022/02/16 15:17:06;;;;;;;6.78;2.22;;;;;;;;;;12673635;23;20519;-83
2022/02/16 15:22:09;;;;;;;6.40;2.10;;;;;;;;;;12672883;23;20010;-84
2022/02/16 15:27:10;;;;;;;8.88;2.55;;;;;;;;;;12670175;23;20020;-83
2022/02/16 15:32:11;;;;;;;;;;;;;;;;;;12672242;23;20010;-84
2022/02/16 15:37:13;;;;;;;7.13;2.50;;;;;;;;;;12673037;23;19924;-83
2022/02/16 15:42:16;;;;;;;5.10;2.00;;;;;;;;;;12699558;23;20013;-84
2022/02/16 15:47:17;;;;;;;8.60;3.15;;;;;;;;;;12670453;23;20013;-84
2022/02/16 15:52:18;;;;;;;3.20;1.30;;;;;;;;;;12669005;23;20013;-84
2022/02/16 15:57:19;;;;;;;;;;;;;;;;;;12694559;23;20006;-84
2022/02/16 16:02:29;;;;;;;4.38;1.70;;;;;;;;;;12667104;23;19932;-83
2022/02/16 16:07:31;;;;;;;6.03;2.00;;;;;;;;;;12671314;23;20089;-83
2022/02/16 16:12:38;;;;;;;6.30;1.92;;;;;;;;;;12667828;23;20280;-83
2022/02/16 16:17:39;;;;;;;8.20;2.28;;;;;;;;;;12667582;23;20010;-83
2022/02/16 16:22:40;;;;;;;6.75;2.20;;;;;;;;;;12669265;23;20033;-82
2022/02/16 16:27:52;;;;;;;5.47;2.47;;;;;;;;;;12692796;23;20096;-82
2022/02/16 16:33:04;;;;;;;6.43;2.47;;;;;;;;;;12665643;23;20005;-83
2022/02/16 16:38:06;;;;;;;9.90;3.45;;;;;;;;;;12673330;23;20017;-83
2022/02/16 16:43:07;;;;;;;7.15;2.83;;;;;;;;;;12674892;23;20017;-82
2022/02/16 16:48:08;;;;;;;7.38;2.67;;;;;;;;;;12691652;23;20073;-84
2022/02/16 16:53:39;;;;;;;8.23;2.80;;;;;;;;;;12750472;23;20001;-85
2022/02/16 16:58:43;;;;;;;6.28;2.42;;;;;;;;;;12771530;23;20005;-84
2022/02/16 17:03:46;;;;;;;7.63;2.90;;;;;;;;;;12750582;23;20017;-83
2022/02/16 17:08:47;;;;;;;8.60;2.83;;;;;;;;;;12742806;23;20013;-83
2022/02/16 17:13:49;;;;;;;9.85;3.60;;;;;;;;;;12747480;23;20073;-83
2022/02/16 17:18:51;;;;;;;9.50;3.20;;;;;;;;;;12743784;23;20440;-83
2022/02/16 17:29:38;;;;;;;12.35;4.45;;;;;;;;;;12587411;23;20453;-86
2022/02/16 18:01:44;;;;;;;8.88;3.13;;;;;;;;;;12586856;23;20007;-84
2022/02/16 18:28:56;;;;;;;6.00;2.42;;;;;;;;;;12756337;23;20052;-84
2022/02/16 19:36:17;;;;;;;;;;;;;;;;;;;;;
